Time;durP1;ratioP1;P1;durP2;ratioP2;P2;SDS_P1;SDS_P2;PMS_P1;PMS_P2;Temp;Humidity;BMP_temperature;BMP_pressure;BME280_temperature;BME280_humidity;BME280_pressure;Samples;Min_cycle;Max_cycle;Signal;HPM_P1;HPM_P2
2021/08/29 00:01:09;;;;;;;21.80;15.03;;;;;;;;;;1775408;81;21157;-46
2021/08/29 00:03:37;;;;;;;25.60;15.10;;;;;;;;;;1775395;81;21054;-49
2021/08/29 00:06:06;;;;;;;23.30;14.75;;;;;;;;;;1775403;81;21062;-49
2021/08/29 00:08:35;;;;;;;24.85;15.23;;;;;;;;;;1775460;81;21062;-49
2021/08/29 00:11:03;;;;;;;24.23;15.98;;;;;;;;;;1775488;81;21062;-49
2021/08/29 00:13:32;;;;;;;24.20;15.50;;;;;;;;;;1775341;81;21089;-48
2021/08/29 00:16:01;;;;;;;17.52;13.35;;;;;;;;;;1775622;81;21067;-47
2021/08/29 00:18:30;;;;;;;22.35;13.93;;;;;;;;;;1775582;81;21331;-48
2021/08/29 00:20:59;;;;;;;21.02;14.18;;;;;;;;;;1775667;81;21051;-47
2021/08/29 00:23:28;;;;;;;22.42;13.30;;;;;;;;;;1775483;80;21145;-48
2021/08/29 00:25:57;;;;;;;21.33;14.18;;;;;;;;;;1775496;81;21079;-49
2021/08/29 00:28:26;;;;;;;19.05;13.05;;;;;;;;;;1775345;81;21061;-49
2021/08/29 00:30:54;;;;;;;19.77;13.70;;;;;;;;;;1775394;81;21058;-49
2021/08/29 00:33:23;;;;;;;24.55;14.70;;;;;;;;;;1775454;81;21074;-49
2021/08/29 00:35:52;;;;;;;27.87;14.45;;;;;;;;;;1775392;81;21074;-49
2021/08/29 00:38:21;;;;;;;21.48;14.18;;;;;;;;;;1775434;81;21070;-46
2021/08/29 00:40:50;;;;;;;22.48;12.88;;;;;;;;;;1775363;81;21117;-49
2021/08/29 00:43:19;;;;;;;22.93;13.10;;;;;;;;;;1775455;81;21063;-48
2021/08/29 00:45:48;;;;;;;21.00;14.07;;;;;;;;;;1775503;81;21145;-46
2021/08/29 00:48:17;;;;;;;23.05;14.65;;;;;;;;;;1775466;81;21078;-49
2021/08/29 00:50:46;;;;;;;21.68;13.75;;;;;;;;;;1775434;81;21082;-50
2021/08/29 00:53:17;;;;;;;22.70;14.18;;;;;;;;;;1775553;81;21090;-48
2021/08/29 00:55:47;;;;;;;27.65;16.10;;;;;;;;;;1775492;81;21066;-50
2021/08/29 00:58:17;;;;;;;20.95;14.25;;;;;;;;;;1775642;81;21074;-48
2021/08/29 01:00:46;;;;;;;25.05;14.68;;;;;;;;;;1775512;81;21058;-47
2021/08/29 01:03:17;;;;;;;19.62;12.98;;;;;;;;;;1775426;81;21141;-49
2021/08/29 01:05:47;;;;;;;19.05;13.28;;;;;;;;;;1775500;81;21062;-49
2021/08/29 01:08:18;;;;;;;19.70;13.08;;;;;;;;;;1775449;81;21398;-49
2021/08/29 01:10:55;;;;;;;19.37;14.00;;;;;;;;;;1775454;81;21143;-47
2021/08/29 01:13:26;;;;;;;21.80;13.98;;;;;;;;;;1775512;81;21133;-50
2021/08/29 01:15:56;;;;;;;19.52;13.43;;;;;;;;;;1775526;81;21058;-47
2021/08/29 01:18:25;;;;;;;23.87;16.35;;;;;;;;;;1775421;81;21062;-48
2021/08/29 01:21:12;;;;;;;24.23;14.78;;;;;;;;;;1775520;81;21051;-50
2021/08/29 01:23:43;;;;;;;24.35;15.15;;;;;;;;;;1722689;83;21069;-47
2021/08/29 01:26:23;;;;;;;26.42;15.38;;;;;;;;;;1796255;79;21142;-49
2021/08/29 01:29:06;;;;;;;25.52;16.12;;;;;;;;;;1809214;78;21065;-48
2021/08/29 01:31:36;;;;;;;20.12;14.10;;;;;;;;;;1809145;79;21116;-50
2021/08/29 01:34:10;;;;;;;25.72;16.00;;;;;;;;;;1809102;79;21054;-48
2021/08/29 01:36:39;;;;;;;;;;;;;;;;;;1811951;79;21510;-47
2021/08/29 01:39:09;;;;;;;20.35;15.00;;;;;;;;;;1809160;79;20117;-49
2021/08/29 01:41:39;;;;;;;26.68;14.98;;;;;;;;;;1809249;79;21124;-47
2021/08/29 01:44:08;;;;;;;17.62;13.28;;;;;;;;;;1797551;79;21108;-46
2021/08/29 01:46:39;;;;;;;19.70;14.63;;;;;;;;;;1809165;79;21034;-48
2021/08/29 01:49:10;;;;;;;19.27;14.25;;;;;;;;;;1809021;78;21046;-50
2021/08/29 01:51:40;;;;;;;18.48;14.30;;;;;;;;;;1809258;79;21054;-49
2021/08/29 01:54:13;;;;;;;21.97;16.35;;;;;;;;;;1804778;79;21074;-48
2021/08/29 01:57:01;;;;;;;21.02;14.58;;;;;;;;;;1781029;79;21131;-50
2021/08/29 01:59:32;;;;;;;20.57;14.85;;;;;;;;;;1797516;79;21031;-49
2021/08/29 02:02:01;;;;;;;22.90;15.75;;;;;;;;;;1809203;79;21059;-49
2021/08/29 02:04:32;;;;;;;20.97;14.83;;;;;;;;;;1809160;79;21524;-49
2021/08/29 02:07:08;;;;;;;19.23;14.63;;;;;;;;;;1809115;79;21112;-50
2021/08/29 02:09:39;;;;;;;22.50;15.70;;;;;;;;;;1809145;79;21062;-47
2021/08/29 02:12:09;;;;;;;24.23;15.20;;;;;;;;;;1809029;79;21022;-48
2021/08/29 02:14:49;;;;;;;21.82;15.30;;;;;;;;;;1809303;79;21046;-50
2021/08/29 02:17:19;;;;;;;23.45;15.00;;;;;;;;;;1755215;81;21147;-46
2021/08/29 02:19:48;;;;;;;23.70;14.23;;;;;;;;;;1775546;81;21493;-48
2021/08/29 02:22:18;;;;;;;24.47;13.53;;;;;;;;;;1775565;81;21074;-47
2021/08/29 02:24:48;;;;;;;20.72;15.13;;;;;;;;;;1774812;81;21095;-49
2021/08/29 02:27:17;;;;;;;23.83;14.68;;;;;;;;;;1773658;81;21070;-49
2021/08/29 02:29:46;;;;;;;22.87;16.30;;;;;;;;;;1773567;81;21133;-47
2021/08/29 02:32:18;;;;;;;28.35;16.10;;;;;;;;;;1773406;81;21120;-49
2021/08/29 02:34:48;;;;;;;24.15;14.90;;;;;;;;;;1773460;81;21134;-48
2021/08/29 02:37:19;;;;;;;19.67;14.60;;;;;;;;;;1773557;81;21195;-49
2021/08/29 02:39:51;;;;;;;22.07;15.90;;;;;;;;;;1773645;81;21185;-47
2021/08/29 02:42:21;;;;;;;24.67;18.70;;;;;;;;;;1773769;81;21026;-48
2021/08/29 02:44:52;;;;;;;19.55;13.90;;;;;;;;;;1773595;81;21077;-49
2021/08/29 02:47:21;;;;;;;19.20;14.18;;;;;;;;;;1773633;81;21074;-49
2021/08/29 02:49:50;;;;;;;28.57;16.05;;;;;;;;;;1773576;81;21144;-48
2021/08/29 02:52:19;;;;;;;21.80;14.95;;;;;;;;;;1773690;81;21116;-50
2021/08/29 02:54:49;;;;;;;29.72;15.08;;;;;;;;;;1775600;80;21114;-50
2021/08/29 02:57:18;;;;;;;22.00;15.18;;;;;;;;;;1773648;81;21175;-49
2021/08/29 02:59:49;;;;;;;26.77;15.03;;;;;;;;;;1773699;81;21081;-49
2021/08/29 03:02:18;;;;;;;21.60;14.95;;;;;;;;;;1773561;81;21074;-48
2021/08/29 03:04:47;;;;;;;23.83;14.90;;;;;;;;;;1773722;81;21047;-46
2021/08/29 03:07:16;;;;;;;20.80;14.87;;;;;;;;;;1773593;81;21050;-50
2021/08/29 03:09:46;;;;;;;30.00;16.75;;;;;;;;;;1775757;80;21050;-49
2021/08/29 03:12:15;;;;;;;25.45;17.17;;;;;;;;;;1773561;81;21078;-50
2021/08/29 03:14:46;;;;;;;24.35;16.00;;;;;;;;;;1769970;81;21094;-47
2021/08/29 03:17:16;;;;;;;24.67;15.00;;;;;;;;;;1773385;81;21139;-46
2021/08/29 03:19:46;;;;;;;22.95;15.05;;;;;;;;;;1773445;81;21139;-50
2021/08/29 03:22:25;;;;;;;26.52;17.42;;;;;;;;;;1773380;81;21054;-50
2021/08/29 03:24:56;;;;;;;28.05;15.60;;;;;;;;;;1773304;81;21164;-47
2021/08/29 03:27:25;;;;;;;24.67;15.93;;;;;;;;;;1775612;81;21077;-47
2021/08/29 03:29:54;;;;;;;27.02;16.50;;;;;;;;;;1773633;81;21168;-48
2021/08/29 03:32:24;;;;;;;24.10;15.85;;;;;;;;;;1773603;81;21180;-47
2021/08/29 03:34:54;;;;;;;24.20;15.13;;;;;;;;;;1773470;81;21105;-47
2021/08/29 03:37:23;;;;;;;21.68;14.93;;;;;;;;;;1773563;81;21117;-50
2021/08/29 03:39:52;;;;;;;19.42;14.18;;;;;;;;;;1773452;81;21066;-47
2021/08/29 03:42:21;;;;;;;22.20;15.05;;;;;;;;;;1773459;81;21058;-47
2021/08/29 03:44:51;;;;;;;24.43;14.60;;;;;;;;;;1773452;81;21144;-48
2021/08/29 03:47:21;;;;;;;24.63;16.02;;;;;;;;;;1773539;81;21062;-47
2021/08/29 03:49:50;;;;;;;27.60;16.07;;;;;;;;;;1773508;81;21050;-48
2021/08/29 03:52:21;;;;;;;25.95;16.00;;;;;;;;;;1773415;81;21571;-50
2021/08/29 03:55:03;;;;;;;21.87;15.32;;;;;;;;;;1762814;81;21124;-47
2021/08/29 03:57:32;;;;;;;22.07;16.35;;;;;;;;;;1773527;81;21062;-46
2021/08/29 04:00:01;;;;;;;25.65;16.65;;;;;;;;;;1773557;81;21074;-47
2021/08/29 04:02:31;;;;;;;25.30;16.60;;;;;;;;;;1773511;81;21144;-49
2021/08/29 04:05:00;;;;;;;34.00;17.77;;;;;;;;;;1773659;81;21062;-48
2021/08/29 04:07:30;;;;;;;27.70;17.45;;;;;;;;;;1773556;81;21117;-47
2021/08/29 04:10:01;;;;;;;29.05;16.45;;;;;;;;;;1773448;81;21090;-47
2021/08/29 04:12:31;;;;;;;29.10;17.65;;;;;;;;;;1773457;81;21140;-48
2021/08/29 04:15:18;;;;;;;29.02;17.55;;;;;;;;;;1773494;81;21137;-49
2021/08/29 04:17:47;;;;;;;31.82;18.27;;;;;;;;;;1773500;81;21140;-49
2021/08/29 04:20:18;;;;;;;29.87;20.97;;;;;;;;;;1773492;81;21149;-46
2021/08/29 04:22:47;;;;;;;41.28;24.47;;;;;;;;;;1773448;81;21042;-48
2021/08/29 04:25:17;;;;;;;28.90;18.80;;;;;;;;;;1773469;81;21132;-50
2021/08/29 04:27:46;;;;;;;38.02;20.23;;;;;;;;;;1775299;81;21153;-49
2021/08/29 04:30:15;;;;;;;33.33;19.80;;;;;;;;;;1775338;81;21187;-49
2021/08/29 04:32:45;;;;;;;39.30;22.93;;;;;;;;;;1775499;81;21094;-47
2021/08/29 04:35:16;;;;;;;30.00;18.82;;;;;;;;;;1775312;81;21201;-46
2021/08/29 04:37:45;;;;;;;35.20;19.75;;;;;;;;;;1775320;81;21132;-48
2021/08/29 04:40:16;;;;;;;38.58;19.77;;;;;;;;;;1775253;81;21190;-49
2021/08/29 04:42:46;;;;;;;42.00;24.52;;;;;;;;;;1774676;81;21177;-49
2021/08/29 04:45:15;;;;;;;45.98;25.90;;;;;;;;;;1775351;81;21081;-48
2021/08/29 04:47:45;;;;;;;43.30;23.87;;;;;;;;;;1775365;81;21070;-47
2021/08/29 04:50:14;;;;;;;49.25;29.00;;;;;;;;;;1775446;81;21163;-46
2021/08/29 04:52:43;;;;;;;53.05;27.42;;;;;;;;;;1775313;81;21141;-47
2021/08/29 04:55:12;;;;;;;58.25;26.20;;;;;;;;;;1775284;81;21152;-50
2021/08/29 04:57:41;;;;;;;39.83;23.98;;;;;;;;;;1775367;81;21144;-47
2021/08/29 05:00:10;;;;;;;45.28;23.50;;;;;;;;;;1775217;81;21074;-50
2021/08/29 05:02:39;;;;;;;37.33;21.07;;;;;;;;;;1775386;81;21070;-48
2021/08/29 05:05:08;;;;;;;36.40;21.95;;;;;;;;;;1775399;81;21133;-48
2021/08/29 05:07:39;;;;;;;38.60;22.90;;;;;;;;;;1775275;81;21161;-50
2021/08/29 05:10:08;;;;;;;31.85;19.05;;;;;;;;;;1775395;81;21152;-48
2021/08/29 05:12:38;;;;;;;32.03;19.52;;;;;;;;;;1775310;81;21118;-50
2021/08/29 05:15:08;;;;;;;44.75;19.95;;;;;;;;;;1775297;81;21160;-49
2021/08/29 05:17:38;;;;;;;31.77;17.77;;;;;;;;;;1775366;81;21066;-47
2021/08/29 05:20:07;;;;;;;30.90;17.42;;;;;;;;;;1775342;81;21081;-47
2021/08/29 05:22:37;;;;;;;25.55;16.97;;;;;;;;;;1759059;81;21152;-51
2021/08/29 05:25:08;;;;;;;26.17;17.25;;;;;;;;;;1767621;81;21081;-47
2021/08/29 05:27:37;;;;;;;23.57;16.97;;;;;;;;;;1773739;80;21094;-49
2021/08/29 05:30:07;;;;;;;27.02;16.95;;;;;;;;;;1773530;81;21050;-49
2021/08/29 05:32:36;;;;;;;23.00;18.30;;;;;;;;;;1773543;81;21074;-48
2021/08/29 05:35:05;;;;;;;25.02;16.10;;;;;;;;;;1773579;81;21057;-50
2021/08/29 05:37:34;;;;;;;25.62;16.60;;;;;;;;;;1773650;81;21144;-50
2021/08/29 05:40:14;;;;;;;21.65;16.52;;;;;;;;;;1747973;81;21077;-49
2021/08/29 05:42:45;;;;;;;27.82;17.52;;;;;;;;;;1752530;80;21127;-50
2021/08/29 05:45:15;;;;;;;24.57;17.77;;;;;;;;;;1762061;80;21101;-49
2021/08/29 05:47:44;;;;;;;23.47;16.97;;;;;;;;;;1762183;81;21110;-47
2021/08/29 05:50:13;;;;;;;23.70;17.77;;;;;;;;;;1762239;81;21063;-49
2021/08/29 05:52:43;;;;;;;23.87;17.20;;;;;;;;;;1762168;81;21106;-47
2021/08/29 05:55:12;;;;;;;23.05;16.93;;;;;;;;;;1762148;81;21079;-47
2021/08/29 05:57:42;;;;;;;23.02;16.40;;;;;;;;;;1762179;81;21071;-47
2021/08/29 06:00:11;;;;;;;30.30;19.37;;;;;;;;;;1762121;81;21137;-49
2021/08/29 06:02:41;;;;;;;30.55;18.05;;;;;;;;;;1762049;81;21099;-50
2021/08/29 06:05:10;;;;;;;27.42;15.75;;;;;;;;;;1762170;81;21051;-48
2021/08/29 06:07:40;;;;;;;26.23;16.93;;;;;;;;;;1762203;81;21169;-47
2021/08/29 06:10:11;;;;;;;25.88;16.30;;;;;;;;;;1762279;81;21051;-47
2021/08/29 06:12:41;;;;;;;23.52;16.15;;;;;;;;;;1762373;81;21148;-46
2021/08/29 06:15:10;;;;;;;19.12;16.05;;;;;;;;;;1762191;81;21140;-50
2021/08/29 06:17:39;;;;;;;24.20;18.07;;;;;;;;;;1762226;81;21067;-47
2021/08/29 06:20:09;;;;;;;20.10;16.10;;;;;;;;;;1762255;81;21059;-51
2021/08/29 06:22:37;;;;;;;19.82;15.85;;;;;;;;;;1762123;81;21137;-47
2021/08/29 06:25:08;;;;;;;26.48;16.35;;;;;;;;;;1761813;81;21194;-47
2021/08/29 06:27:54;;;;;;;21.70;15.43;;;;;;;;;;1746523;81;21165;-50
2021/08/29 06:30:40;;;;;;;21.73;15.70;;;;;;;;;;1826781;77;21523;-50
2021/08/29 06:33:27;;;;;;;24.50;15.00;;;;;;;;;;1829450;78;21082;-47
2021/08/29 06:35:58;;;;;;;20.52;15.93;;;;;;;;;;1829215;78;21077;-47
2021/08/29 06:38:27;;;;;;;23.92;15.58;;;;;;;;;;1829429;78;21128;-47
2021/08/29 06:40:55;;;;;;;24.30;16.70;;;;;;;;;;1829550;78;21135;-48
2021/08/29 06:43:25;;;;;;;23.50;17.25;;;;;;;;;;1829545;78;21178;-50
2021/08/29 06:45:55;;;;;;;23.35;16.05;;;;;;;;;;1827818;78;21056;-50
2021/08/29 06:48:25;;;;;;;23.75;16.10;;;;;;;;;;1802426;77;21163;-50
2021/08/29 06:50:59;;;;;;;22.85;15.45;;;;;;;;;;1804100;77;21135;-49
2021/08/29 06:53:45;;;;;;;23.52;16.62;;;;;;;;;;1829418;78;21054;-48
2021/08/29 06:56:32;;;;;;;22.42;16.57;;;;;;;;;;1829376;78;21094;-48
2021/08/29 06:59:05;;;;;;;25.15;15.95;;;;;;;;;;1829367;77;21065;-51
2021/08/29 07:01:34;;;;;;;18.77;15.50;;;;;;;;;;1829542;78;21156;-47
2021/08/29 07:04:04;;;;;;;20.20;16.97;;;;;;;;;;1829497;78;21034;-50
2021/08/29 07:06:32;;;;;;;24.20;16.50;;;;;;;;;;1829511;78;21120;-47
2021/08/29 07:09:03;;;;;;;22.45;16.67;;;;;;;;;;1802438;77;21123;-48
2021/08/29 07:11:33;;;;;;;20.82;15.32;;;;;;;;;;1829566;78;21014;-50
2021/08/29 07:14:07;;;;;;;21.93;16.20;;;;;;;;;;1827384;78;21159;-48
2021/08/29 07:16:35;;;;;;;26.65;16.82;;;;;;;;;;1829387;78;21038;-48
2021/08/29 07:19:04;;;;;;;21.27;15.72;;;;;;;;;;1829590;78;21080;-48
2021/08/29 07:21:38;;;;;;;21.70;14.28;;;;;;;;;;1818555;78;21061;-49
2021/08/29 07:24:08;;;;;;;21.50;15.30;;;;;;;;;;1802434;77;21128;-50
2021/08/29 07:26:45;;;;;;;32.58;17.65;;;;;;;;;;1805862;77;21177;-50
2021/08/29 07:29:32;;;;;;;23.65;17.67;;;;;;;;;;1811280;79;21180;-48
2021/08/29 07:32:19;;;;;;;21.40;14.95;;;;;;;;;;1811385;79;21054;-50
2021/08/29 07:34:48;;;;;;;24.12;15.83;;;;;;;;;;1811380;79;21050;-49
2021/08/29 07:37:24;;;;;;;28.23;15.55;;;;;;;;;;1788798;78;21171;-50
2021/08/29 07:39:54;;;;;;;26.27;14.87;;;;;;;;;;1811431;79;21058;-49
2021/08/29 07:42:23;;;;;;;37.95;15.83;;;;;;;;;;1811488;79;21039;-51
2021/08/29 07:44:52;;;;;;;23.67;16.27;;;;;;;;;;1811420;79;21129;-51
2021/08/29 07:47:22;;;;;;;21.75;15.83;;;;;;;;;;1811258;78;21083;-48
2021/08/29 07:49:51;;;;;;;20.20;14.65;;;;;;;;;;1811377;79;21050;-49
2021/08/29 07:52:20;;;;;;;26.27;14.90;;;;;;;;;;1811566;79;21106;-47
2021/08/29 07:54:51;;;;;;;19.10;14.73;;;;;;;;;;1811486;78;21164;-50
2021/08/29 07:57:37;;;;;;;28.55;15.50;;;;;;;;;;1811405;79;21168;-50
2021/08/29 08:00:08;;;;;;;20.02;13.32;;;;;;;;;;1810778;78;21086;-50
2021/08/29 08:02:38;;;;;;;19.62;14.73;;;;;;;;;;1824007;78;21058;-49
2021/08/29 08:05:25;;;;;;;21.90;13.18;;;;;;;;;;1811398;79;21102;-48
2021/08/29 08:08:12;;;;;;;26.42;14.60;;;;;;;;;;1811337;79;21065;-47
2021/08/29 08:10:51;;;;;;;21.68;14.85;;;;;;;;;;1809348;79;21090;-50
2021/08/29 08:13:27;;;;;;;20.40;14.53;;;;;;;;;;1810967;78;21086;-51
2021/08/29 08:15:56;;;;;;;23.85;14.43;;;;;;;;;;1811332;79;21512;-50
2021/08/29 08:18:26;;;;;;;22.65;14.25;;;;;;;;;;1811353;79;21062;-50
2021/08/29 08:20:55;;;;;;;20.95;13.83;;;;;;;;;;1811357;79;21094;-48
2021/08/29 08:23:41;;;;;;;23.80;14.90;;;;;;;;;;1811292;79;21075;-47
2021/08/29 08:26:30;;;;;;;22.62;15.43;;;;;;;;;;1811385;79;21165;-50
2021/08/29 08:29:17;;;;;;;20.75;15.80;;;;;;;;;;1811281;78;21074;-50
2021/08/29 08:32:04;;;;;;;27.05;15.50;;;;;;;;;;1811286;79;21070;-51
2021/08/29 08:34:34;;;;;;;19.65;13.95;;;;;;;;;;1809392;78;21523;-49
2021/08/29 08:37:07;;;;;;;29.65;17.12;;;;;;;;;;1809814;78;21630;-50
2021/08/29 08:39:47;;;;;;;20.12;14.58;;;;;;;;;;1810434;78;21066;-50
2021/08/29 08:42:17;;;;;;;21.52;15.63;;;;;;;;;;1810518;78;21094;-50
2021/08/29 08:45:04;;;;;;;18.40;12.73;;;;;;;;;;1811245;79;21070;-51
2021/08/29 08:47:42;;;;;;;17.45;12.68;;;;;;;;;;1803439;79;21061;-51
2021/08/29 08:50:29;;;;;;;19.30;13.10;;;;;;;;;;1811427;79;21061;-51
2021/08/29 08:53:19;;;;;;;26.02;12.37;;;;;;;;;;1809405;79;21157;-46
2021/08/29 08:56:06;;;;;;;16.05;12.00;;;;;;;;;;1811456;79;21066;-49
2021/08/29 08:59:00;;;;;;;20.23;12.75;;;;;;;;;;1811321;79;21120;-49
2021/08/29 09:01:37;;;;;;;16.17;12.90;;;;;;;;;;1788929;78;21069;-49
2021/08/29 09:04:07;;;;;;;21.20;12.07;;;;;;;;;;1783343;78;21061;-51
2021/08/29 09:06:38;;;;;;;18.87;11.88;;;;;;;;;;1810962;78;21361;-51
2021/08/29 09:09:06;;;;;;;18.52;13.43;;;;;;;;;;1811486;79;21054;-50
2021/08/29 09:11:36;;;;;;;16.73;12.18;;;;;;;;;;1811328;79;21074;-47
2021/08/29 09:14:04;;;;;;;20.12;12.23;;;;;;;;;;1811447;79;21073;-49
2021/08/29 09:16:33;;;;;;;17.42;11.25;;;;;;;;;;1811343;79;21054;-48
2021/08/29 09:19:03;;;;;;;22.70;12.05;;;;;;;;;;1811397;79;21071;-50
2021/08/29 09:21:33;;;;;;;26.97;15.08;;;;;;;;;;1811336;79;21469;-49
2021/08/29 09:24:05;;;;;;;15.95;11.93;;;;;;;;;;1811251;78;21097;-48
2021/08/29 09:26:42;;;;;;;16.42;12.25;;;;;;;;;;1809973;78;21180;-49
2021/08/29 09:29:30;;;;;;;23.47;14.05;;;;;;;;;;1765135;80;21105;-47
2021/08/29 09:32:00;;;;;;;17.70;10.70;;;;;;;;;;1764496;81;21274;-51
2021/08/29 09:34:33;;;;;;;14.78;10.70;;;;;;;;;;1782263;79;21061;-49
2021/08/29 09:37:04;;;;;;;17.27;12.33;;;;;;;;;;1809111;79;21125;-50
2021/08/29 09:39:34;;;;;;;15.43;10.75;;;;;;;;;;1808538;79;21038;-51
2021/08/29 09:42:07;;;;;;;16.25;10.15;;;;;;;;;;1804769;79;21062;-48
2021/08/29 09:44:44;;;;;;;14.70;9.70;;;;;;;;;;1792467;79;21131;-50
2021/08/29 09:47:30;;;;;;;23.47;11.18;;;;;;;;;;1764902;81;21062;-51
2021/08/29 09:50:07;;;;;;;25.43;11.05;;;;;;;;;;1792182;79;21524;-50
2021/08/29 09:52:37;;;;;;;13.45;9.38;;;;;;;;;;1806062;79;21062;-51
2021/08/29 09:55:13;;;;;;;16.50;9.13;;;;;;;;;;1809032;78;21073;-49
2021/08/29 09:58:00;;;;;;;14.55;9.88;;;;;;;;;;1809113;79;21586;-49
2021/08/29 10:00:33;;;;;;;17.63;10.47;;;;;;;;;;1808685;79;21164;-47
2021/08/29 10:03:03;;;;;;;15.05;9.98;;;;;;;;;;1809190;79;21763;-51
2021/08/29 10:05:34;;;;;;;14.10;9.40;;;;;;;;;;1808508;79;21500;-51
2021/08/29 10:08:09;;;;;;;16.17;9.85;;;;;;;;;;1809132;79;21031;-49
2021/08/29 10:10:43;;;;;;;18.15;9.80;;;;;;;;;;1804696;79;21189;-50
2021/08/29 10:13:14;;;;;;;14.85;10.08;;;;;;;;;;1808978;79;21083;-51
2021/08/29 10:15:45;;;;;;;10.18;8.43;;;;;;;;;;1809095;78;21598;-48
2021/08/29 10:18:31;;;;;;;14.73;9.70;;;;;;;;;;1806731;79;21136;-50
2021/08/29 10:21:05;;;;;;;11.20;9.15;;;;;;;;;;1782795;79;21112;-49
2021/08/29 10:23:36;;;;;;;17.57;9.30;;;;;;;;;;1773327;81;21116;-51
2021/08/29 10:26:06;;;;;;;26.20;10.18;;;;;;;;;;1776274;79;21069;-50
2021/08/29 10:28:54;;;;;;;20.00;10.03;;;;;;;;;;1775460;80;21544;-48
2021/08/29 10:31:46;;;;;;;19.70;9.58;;;;;;;;;;1775471;81;21175;-48
2021/08/29 10:34:22;;;;;;;14.58;9.68;;;;;;;;;;1775641;80;21081;-51
2021/08/29 10:36:52;;;;;;;12.47;8.63;;;;;;;;;;1775578;81;21136;-51
2021/08/29 10:39:39;;;;;;;19.67;9.28;;;;;;;;;;1775508;81;21528;-48
2021/08/29 10:42:10;;;;;;;12.55;8.68;;;;;;;;;;1772114;81;21042;-50
2021/08/29 10:44:41;;;;;;;16.62;9.75;;;;;;;;;;1759377;81;21144;-50
2021/08/29 10:47:28;;;;;;;12.03;9.00;;;;;;;;;;1775653;81;21066;-47
2021/08/29 10:50:05;;;;;;;19.37;9.73;;;;;;;;;;1775784;81;21073;-48
2021/08/29 10:52:35;;;;;;;15.32;9.05;;;;;;;;;;1775674;81;21090;-50
2021/08/29 10:55:05;;;;;;;14.25;8.88;;;;;;;;;;1775477;81;21140;-47
2021/08/29 10:57:39;;;;;;;12.98;9.88;;;;;;;;;;1777815;80;21038;-49
2021/08/29 11:00:17;;;;;;;15.08;9.80;;;;;;;;;;1775199;80;21074;-49
2021/08/29 11:02:47;;;;;;;17.82;10.20;;;;;;;;;;1775599;81;21504;-50
2021/08/29 11:05:34;;;;;;;14.23;9.83;;;;;;;;;;1775333;81;21070;-50
2021/08/29 11:08:09;;;;;;;16.65;8.30;;;;;;;;;;1775408;81;21163;-47
2021/08/29 11:10:39;;;;;;;19.82;10.43;;;;;;;;;;1775866;81;21133;-50
2021/08/29 11:13:27;;;;;;;17.60;9.30;;;;;;;;;;1775452;81;21078;-48
2021/08/29 11:16:11;;;;;;;17.67;10.40;;;;;;;;;;1775204;81;21086;-46
2021/08/29 11:19:01;;;;;;;18.20;9.15;;;;;;;;;;1775432;81;21097;-49
2021/08/29 11:21:39;;;;;;;16.48;8.85;;;;;;;;;;1775488;81;21155;-50
2021/08/29 11:24:10;;;;;;;14.07;9.08;;;;;;;;;;1759348;81;21081;-48
2021/08/29 11:26:40;;;;;;;14.53;9.00;;;;;;;;;;1775432;81;21062;-49
2021/08/29 11:29:28;;;;;;;18.75;9.78;;;;;;;;;;1724936;80;21101;-48
2021/08/29 11:31:59;;;;;;;18.55;10.08;;;;;;;;;;1775234;81;21165;-48
2021/08/29 11:34:29;;;;;;;14.90;9.10;;;;;;;;;;1775316;81;21102;-46
2021/08/29 11:36:58;;;;;;;22.13;8.93;;;;;;;;;;1775332;81;21074;-50
2021/08/29 11:39:33;;;;;;;12.73;8.90;;;;;;;;;;1773252;81;21111;-46
2021/08/29 11:42:16;;;;;;;15.88;8.83;;;;;;;;;;1775299;81;21176;-49
2021/08/29 11:44:45;;;;;;;16.93;8.93;;;;;;;;;;1775420;81;21098;-48
2021/08/29 11:47:14;;;;;;;15.80;8.43;;;;;;;;;;1775256;81;21078;-47
2021/08/29 11:49:54;;;;;;;14.53;8.88;;;;;;;;;;1769483;81;21560;-50
2021/08/29 11:52:27;;;;;;;14.68;8.80;;;;;;;;;;1775511;81;21070;-51
2021/08/29 11:55:04;;;;;;;14.68;8.25;;;;;;;;;;1775460;81;21164;-48
2021/08/29 11:57:35;;;;;;;15.75;8.08;;;;;;;;;;1775391;81;21207;-50
2021/08/29 12:00:10;;;;;;;17.15;9.18;;;;;;;;;;1768249;81;21082;-48
2021/08/29 12:02:49;;;;;;;14.47;8.73;;;;;;;;;;1775564;80;21095;-50
2021/08/29 12:05:20;;;;;;;13.83;8.18;;;;;;;;;;1775055;81;21176;-47
2021/08/29 12:08:03;;;;;;;9.73;8.30;;;;;;;;;;1775376;81;21117;-48
2021/08/29 12:10:51;;;;;;;17.42;8.88;;;;;;;;;;1775514;81;21602;-47
2021/08/29 12:13:40;;;;;;;11.40;7.92;;;;;;;;;;1750006;82;21248;-47
2021/08/29 12:16:29;;;;;;;15.10;8.30;;;;;;;;;;1794652;79;21081;-49
2021/08/29 12:18:59;;;;;;;16.52;8.45;;;;;;;;;;1800307;79;21140;-47
2021/08/29 12:21:34;;;;;;;18.02;10.63;;;;;;;;;;1806613;79;21057;-47
2021/08/29 12:24:11;;;;;;;11.05;7.42;;;;;;;;;;1807607;79;21179;-51
2021/08/29 12:26:40;;;;;;;17.27;8.48;;;;;;;;;;1776161;81;21136;-49
2021/08/29 12:29:12;;;;;;;12.47;7.95;;;;;;;;;;1776581;79;21139;-49
2021/08/29 12:31:41;;;;;;;15.10;8.73;;;;;;;;;;1778582;80;21506;-50
2021/08/29 12:34:10;;;;;;;14.95;8.73;;;;;;;;;;1778403;79;21573;-49
2021/08/29 12:36:39;;;;;;;14.45;8.13;;;;;;;;;;1778334;80;21065;-50
2021/08/29 12:39:11;;;;;;;14.75;8.23;;;;;;;;;;1778494;79;21127;-48
2021/08/29 12:41:43;;;;;;;14.83;8.40;;;;;;;;;;1778460;79;21057;-49
2021/08/29 12:44:12;;;;;;;12.50;8.48;;;;;;;;;;1778573;79;21095;-47
2021/08/29 12:46:41;;;;;;;12.00;7.90;;;;;;;;;;1778470;79;21065;-48
2021/08/29 12:49:10;;;;;;;13.20;8.03;;;;;;;;;;1778488;79;21128;-48
2021/08/29 12:51:39;;;;;;;12.82;8.58;;;;;;;;;;1778361;81;21065;-50
2021/08/29 12:54:08;;;;;;;14.33;8.70;;;;;;;;;;1778336;79;21057;-50
2021/08/29 12:56:37;;;;;;;8.80;7.67;;;;;;;;;;1778313;81;21123;-50
2021/08/29 12:59:06;;;;;;;14.78;8.45;;;;;;;;;;1778413;81;21065;-50
2021/08/29 13:01:35;;;;;;;12.98;9.05;;;;;;;;;;1778426;81;21179;-48
2021/08/29 13:04:04;;;;;;;17.12;8.40;;;;;;;;;;1778406;79;21054;-50
2021/08/29 13:06:34;;;;;;;16.55;9.18;;;;;;;;;;1778336;80;21049;-49
2021/08/29 13:09:04;;;;;;;16.77;8.23;;;;;;;;;;1778405;81;21488;-50
2021/08/29 13:11:34;;;;;;;11.00;7.80;;;;;;;;;;1764193;80;21062;-49
2021/08/29 13:14:03;;;;;;;12.30;9.08;;;;;;;;;;1764465;81;21054;-50
2021/08/29 13:16:39;;;;;;;18.67;8.60;;;;;;;;;;1764181;81;21075;-50
2021/08/29 13:19:07;;;;;;;16.05;8.90;;;;;;;;;;1763360;80;21133;-49
2021/08/29 13:21:37;;;;;;;13.68;8.58;;;;;;;;;;1764218;81;21075;-51
2021/08/29 13:24:27;;;;;;;17.98;8.73;;;;;;;;;;1764296;81;21136;-50
2021/08/29 13:26:57;;;;;;;13.70;8.85;;;;;;;;;;1764075;81;21242;-50
2021/08/29 13:29:42;;;;;;;12.90;8.70;;;;;;;;;;1763782;81;21528;-50
2021/08/29 13:32:11;;;;;;;15.00;9.03;;;;;;;;;;1762181;81;21120;-47
2021/08/29 13:34:40;;;;;;;15.23;9.10;;;;;;;;;;1762179;81;21142;-50
2021/08/29 13:37:10;;;;;;;14.13;8.85;;;;;;;;;;1762039;81;21145;-51
2021/08/29 13:39:40;;;;;;;12.60;9.10;;;;;;;;;;1761952;81;21078;-50
2021/08/29 13:42:17;;;;;;;15.13;8.93;;;;;;;;;;1761991;81;21152;-51
2021/08/29 13:44:45;;;;;;;18.00;8.55;;;;;;;;;;1762091;81;21074;-51
2021/08/29 13:47:15;;;;;;;19.65;9.23;;;;;;;;;;1761957;81;21075;-51
2021/08/29 13:49:44;;;;;;;17.35;10.50;;;;;;;;;;1762168;81;21136;-51
2021/08/29 13:52:14;;;;;;;15.43;10.32;;;;;;;;;;1762143;81;21075;-51
2021/08/29 13:54:43;;;;;;;18.35;10.13;;;;;;;;;;1762158;81;21053;-52
2021/08/29 13:57:12;;;;;;;14.28;10.18;;;;;;;;;;1762095;81;21187;-52
2021/08/29 13:59:41;;;;;;;12.82;9.08;;;;;;;;;;1762085;81;21137;-51
2021/08/29 14:02:10;;;;;;;16.42;9.75;;;;;;;;;;1762133;81;21082;-52
2021/08/29 14:04:39;;;;;;;15.40;10.05;;;;;;;;;;1762125;81;21152;-51
2021/08/29 14:07:07;;;;;;;12.47;9.48;;;;;;;;;;1762088;81;21141;-48
2021/08/29 14:09:36;;;;;;;25.92;11.73;;;;;;;;;;1762094;81;21078;-51
2021/08/29 14:12:05;;;;;;;12.73;10.40;;;;;;;;;;1762232;81;21370;-51
2021/08/29 14:14:34;;;;;;;13.68;9.18;;;;;;;;;;1762141;81;21145;-51
2021/08/29 14:17:03;;;;;;;13.80;9.63;;;;;;;;;;1762041;81;21074;-52
2021/08/29 14:19:32;;;;;;;14.95;10.08;;;;;;;;;;1762179;81;21154;-50
2021/08/29 14:22:01;;;;;;;15.98;10.30;;;;;;;;;;1762198;81;21071;-52
2021/08/29 14:24:29;;;;;;;19.65;10.95;;;;;;;;;;1762243;81;21062;-51
2021/08/29 14:26:58;;;;;;;21.27;14.70;;;;;;;;;;1762058;81;21062;-51
2021/08/29 14:29:27;;;;;;;26.42;12.68;;;;;;;;;;1762098;81;21039;-52
2021/08/29 14:31:55;;;;;;;17.85;10.98;;;;;;;;;;1762165;81;21118;-51
2021/08/29 14:34:25;;;;;;;25.30;18.15;;;;;;;;;;1762164;81;21161;-52
2021/08/29 14:36:54;;;;;;;16.15;10.60;;;;;;;;;;1762245;81;21062;-52
2021/08/29 14:39:22;;;;;;;18.57;11.93;;;;;;;;;;1762145;81;21117;-53
2021/08/29 14:41:51;;;;;;;18.52;11.12;;;;;;;;;;1762131;81;21047;-52
2021/08/29 14:44:20;;;;;;;28.05;12.63;;;;;;;;;;1762155;81;21062;-52
2021/08/29 14:46:49;;;;;;;17.35;11.10;;;;;;;;;;1762201;81;21062;-52
2021/08/29 14:49:18;;;;;;;25.55;14.80;;;;;;;;;;1762197;81;21071;-50
2021/08/29 14:51:46;;;;;;;25.20;12.47;;;;;;;;;;1761969;81;21071;-52